Time;durP1;ratioP1;P1;durP2;ratioP2;P2;SDS_P1;SDS_P2;PMS_P1;PMS_P2;Temp;Humidity;BMP_temperature;BMP_pressure;BME280_temperature;BME280_humidity;BME280_pressure;Samples;Min_cycle;Max_cycle;Signal;HPM_P1;HPM_P2
2023/05/12 00:00:57;;;;;;;10.23;7.40;;;11.80;47.40;;;;;;5033410;28;20475;-68
2023/05/12 00:03:24;;;;;;;10.53;6.40;;;11.90;47.40;;;;;;5029454;28;20455;-68
2023/05/12 00:05:51;;;;;;;9.80;6.87;;;11.90;47.50;;;;;;5034416;28;20482;-69
2023/05/12 00:08:19;;;;;;;11.10;8.50;;;11.90;47.40;;;;;;5034124;28;20474;-69
2023/05/12 00:10:46;;;;;;;9.77;7.73;;;11.90;47.40;;;;;;5033490;28;20494;-69
2023/05/12 00:13:13;;;;;;;11.23;8.10;;;11.90;47.30;;;;;;5029682;28;21012;-68
2023/05/12 00:15:39;;;;;;;10.57;7.87;;;11.90;47.30;;;;;;5033507;28;20482;-69
2023/05/12 00:18:06;;;;;;;11.07;8.27;;;11.90;47.20;;;;;;5033617;28;20454;-68
2023/05/12 00:20:33;;;;;;;10.87;8.47;;;11.90;47.20;;;;;;5031907;28;21005;-68
2023/05/12 00:23:00;;;;;;;10.80;7.77;;;11.90;47.10;;;;;;5032347;28;20459;-68
2023/05/12 00:25:28;;;;;;;11.57;9.00;;;11.90;47.10;;;;;;5030037;28;20494;-68
2023/05/12 00:27:54;;;;;;;13.47;10.07;;;11.90;47.10;;;;;;5032919;28;20462;-68
2023/05/12 00:30:21;;;;;;;13.30;9.70;;;11.90;47.20;;;;;;5030317;28;20458;-68
2023/05/12 00:32:48;;;;;;;14.60;9.97;;;11.90;47.10;;;;;;5037527;28;20450;-67
2023/05/12 00:35:15;;;;;;;14.87;11.60;;;11.90;47.10;;;;;;5041053;28;20485;-68
2023/05/12 00:37:42;;;;;;;14.63;10.53;;;11.90;47.10;;;;;;5031242;28;20469;-68
2023/05/12 00:40:10;;;;;;;13.67;10.57;;;11.90;47.00;;;;;;5028790;28;20471;-68
2023/05/12 00:42:38;;;;;;;12.90;10.27;;;11.90;46.90;;;;;;5031127;28;20923;-68
2023/05/12 00:45:07;;;;;;;14.10;9.73;;;11.90;46.80;;;;;;5026414;28;20494;-69
2023/05/12 00:47:34;;;;;;;10.67;8.47;;;11.90;46.80;;;;;;5030847;28;20494;-68
2023/05/12 00:50:02;;;;;;;12.27;9.03;;;11.90;46.90;;;;;;5028755;28;20645;-68
2023/05/12 00:52:30;;;;;;;11.83;8.63;;;11.80;47.10;;;;;;5027975;28;20459;-69
2023/05/12 00:54:57;;;;;;;10.80;8.40;;;11.80;47.50;;;;;;5029760;28;20989;-69
2023/05/12 00:57:26;;;;;;;11.73;8.93;;;11.70;47.70;;;;;;5029345;28;20470;-69
2023/05/12 00:59:54;;;;;;;12.73;9.63;;;11.70;47.70;;;;;;5025937;28;21208;-69
2023/05/12 01:02:22;;;;;;;11.90;8.57;;;11.70;47.80;;;;;;5030647;28;20477;-68
2023/05/12 01:04:49;;;;;;;10.50;8.50;;;11.70;47.80;;;;;;5031486;28;20463;-68
2023/05/12 01:07:19;;;;;;;11.50;9.40;;;11.70;47.80;;;;;;5030005;28;20582;-68
2023/05/12 01:09:46;;;;;;;12.40;9.47;;;11.70;47.70;;;;;;5028788;28;20481;-68
2023/05/12 01:12:12;;;;;;;13.00;9.93;;;11.70;47.70;;;;;;5030394;28;20500;-68
2023/05/12 01:14:40;;;;;;;14.07;10.47;;;11.80;47.60;;;;;;5032571;28;20489;-68
2023/05/12 01:17:12;;;;;;;13.47;9.60;;;11.70;47.50;;;;;;5028080;28;20494;-68
2023/05/12 01:19:47;;;;;;;13.20;9.67;;;11.70;47.50;;;;;;5028226;28;20973;-68
2023/05/12 01:22:16;;;;;;;12.00;9.03;;;11.60;47.70;;;;;;5030640;28;20510;-69
2023/05/12 01:24:48;;;;;;;12.83;9.43;;;11.60;47.70;;;;;;5030571;28;20478;-68
2023/05/12 01:27:17;;;;;;;13.07;9.73;;;11.60;47.70;;;;;;5030050;28;20506;-68
2023/05/12 01:29:46;;;;;;;15.80;10.07;;;11.60;47.70;;;;;;5028750;28;20474;-68
2023/05/12 01:32:14;;;;;;;13.27;9.80;;;11.50;47.80;;;;;;5023518;28;20477;-68
2023/05/12 01:34:42;;;;;;;13.50;10.23;;;11.60;47.80;;;;;;5027128;28;21183;-67
2023/05/12 01:37:09;;;;;;;12.17;9.60;;;11.60;47.80;;;;;;5027528;28;20490;-69
2023/05/12 01:39:36;;;;;;;16.33;10.17;;;11.60;47.80;;;;;;5030288;28;20462;-68
2023/05/12 01:42:03;;;;;;;16.13;11.57;;;11.50;47.70;;;;;;5029371;28;20482;-68
2023/05/12 01:44:31;;;;;;;14.60;10.10;;;11.50;47.70;;;;;;5028323;28;20459;-68
2023/05/12 01:46:58;;;;;;;14.40;10.57;;;11.50;47.70;;;;;;5028701;28;20912;-68
2023/05/12 01:49:25;;;;;;;15.97;11.50;;;11.50;48.00;;;;;;5029812;28;20474;-68
2023/05/12 01:51:51;;;;;;;14.93;11.47;;;11.40;48.20;;;;;;5029360;28;20463;-69
2023/05/12 01:54:18;;;;;;;16.63;11.00;;;11.40;48.50;;;;;;5027985;28;20837;-68
2023/05/12 01:56:45;;;;;;;17.20;11.57;;;11.40;48.60;;;;;;5028289;28;20474;-68
2023/05/12 01:59:12;;;;;;;17.00;11.63;;;11.30;48.80;;;;;;5029324;28;20489;-68
2023/05/12 02:01:40;;;;;;;17.40;11.80;;;11.30;49.40;;;;;;5028695;28;20487;-68
2023/05/12 02:04:07;;;;;;;16.50;12.20;;;11.20;49.50;;;;;;5029804;28;20455;-69
2023/05/12 02:06:34;;;;;;;17.43;11.80;;;11.20;49.50;;;;;;5029136;28;20495;-69
2023/05/12 02:09:01;;;;;;;19.67;13.17;;;11.20;49.60;;;;;;5026893;28;20481;-68
2023/05/12 02:11:28;;;;;;;16.33;11.20;;;11.30;49.50;;;;;;5028859;28;20455;-69
2023/05/12 02:13:55;;;;;;;68.63;13.47;;;11.30;49.30;;;;;;5024242;28;20470;-69
2023/05/12 02:16:22;;;;;;;15.67;9.70;;;11.30;49.50;;;;;;5028907;28;21134;-68
2023/05/12 02:18:50;;;;;;;17.93;10.57;;;11.30;49.50;;;;;;5029082;28;20487;-69
2023/05/12 02:21:17;;;;;;;14.60;10.03;;;11.30;49.70;;;;;;5027867;28;20489;-68
2023/05/12 02:23:44;;;;;;;15.67;10.43;;;11.20;49.60;;;;;;5025081;28;20474;-69
2023/05/12 02:26:11;;;;;;;14.17;9.90;;;11.20;49.60;;;;;;5028022;28;20491;-68
2023/05/12 02:28:37;;;;;;;14.73;10.40;;;11.20;49.80;;;;;;5027881;28;20486;-68
2023/05/12 02:31:04;;;;;;;14.90;10.53;;;11.20;50.00;;;;;;5028184;28;20895;-68
2023/05/12 02:33:31;;;;;;;17.30;11.40;;;11.20;50.10;;;;;;5089557;22;20484;-68
2023/05/12 02:35:59;;;;;;;16.37;11.40;;;11.20;50.10;;;;;;5087467;28;20487;-68
2023/05/12 02:38:26;;;;;;;15.57;11.50;;;11.10;50.20;;;;;;5060393;28;21133;-68
2023/05/12 02:40:53;;;;;;;17.80;11.47;;;11.10;50.10;;;;;;5071957;28;20869;-68
2023/05/12 02:43:19;;;;;;;17.13;11.43;;;11.20;50.00;;;;;;5071362;28;20474;-68
2023/05/12 02:45:46;;;;;;;16.33;11.50;;;11.20;49.90;;;;;;5068435;28;20477;-69
2023/05/12 02:48:13;;;;;;;20.13;12.57;;;11.30;49.80;;;;;;5066208;28;20984;-69
2023/05/12 02:50:40;;;;;;;16.40;12.20;;;11.30;49.70;;;;;;5062368;28;20468;-68
2023/05/12 02:53:08;;;;;;;18.20;11.37;;;11.30;49.50;;;;;;5065360;28;20453;-68
2023/05/12 02:55:34;;;;;;;18.77;12.40;;;11.30;49.40;;;;;;5066783;28;20879;-68
2023/05/12 02:58:02;;;;;;;17.43;12.00;;;11.40;49.30;;;;;;5065367;28;20475;-69
2023/05/12 03:00:29;;;;;;;29.47;17.93;;;11.40;49.20;;;;;;5067877;28;20464;-69
2023/05/12 03:02:56;;;;;;;22.00;13.57;;;11.40;49.10;;;;;;5063061;28;20515;-69
2023/05/12 03:05:22;;;;;;;26.37;17.10;;;11.40;48.80;;;;;;5065830;28;20488;-68
2023/05/12 03:07:49;;;;;;;54.40;30.87;;;11.40;48.80;;;;;;5066288;28;20465;-69
2023/05/12 03:10:18;;;;;;;35.57;22.57;;;11.50;48.80;;;;;;5065084;28;20461;-69
2023/05/12 03:12:45;;;;;;;19.10;13.60;;;11.50;48.70;;;;;;5065119;28;20458;-69
2023/05/12 03:15:12;;;;;;;17.03;12.07;;;11.50;48.70;;;;;;5066558;28;20545;-68
2023/05/12 03:17:39;;;;;;;21.17;14.20;;;11.50;48.70;;;;;;5066796;28;20464;-68
2023/05/12 03:20:07;;;;;;;21.23;13.07;;;11.50;48.70;;;;;;5067496;28;20464;-68
2023/05/12 03:22:34;;;;;;;17.90;12.10;;;11.50;48.70;;;;;;5067680;28;20481;-68
2023/05/12 03:25:02;;;;;;;18.10;11.97;;;11.50;49.40;;;;;;5065011;28;20465;-69
2023/05/12 03:27:31;;;;;;;18.13;12.20;;;11.50;48.60;;;;;;5063269;28;20468;-69
2023/05/12 03:29:59;;;;;;;18.10;12.40;;;11.50;48.60;;;;;;5066133;28;20457;-69
2023/05/12 03:32:26;;;;;;;15.43;10.60;;;11.50;48.60;;;;;;5063503;28;20457;-69
2023/05/12 03:34:52;;;;;;;20.83;11.00;;;11.60;48.60;;;;;;5068233;28;20833;-69
2023/05/12 03:37:19;;;;;;;19.53;12.70;;;11.50;48.60;;;;;;5064604;28;20512;-68
2023/05/12 03:39:46;;;;;;;19.50;11.87;;;11.50;48.60;;;;;;5068185;28;20464;-69
2023/05/12 03:42:14;;;;;;;16.17;12.00;;;11.60;48.60;;;;;;5065828;28;21315;-69
2023/05/12 03:44:42;;;;;;;17.20;12.53;;;11.50;48.60;;;;;;5063534;28;20465;-69
2023/05/12 03:47:09;;;;;;;22.13;16.23;;;11.50;48.60;;;;;;5063329;28;21046;-69
2023/05/12 03:49:35;;;;;;;29.07;19.70;;;11.50;48.60;;;;;;5059922;28;20465;-69
2023/05/12 03:52:02;;;;;;;28.60;21.40;;;11.50;48.50;;;;;;5067070;28;20460;-69
2023/05/12 03:54:29;;;;;;;25.60;18.57;;;11.60;48.60;;;;;;5060948;28;20837;-69
2023/05/12 03:56:56;;;;;;;23.17;16.27;;;11.60;48.50;;;;;;5065635;28;20536;-68
2023/05/12 03:59:22;;;;;;;20.23;14.30;;;11.60;48.60;;;;;;5068801;28;20457;-68
2023/05/12 04:01:52;;;;;;;17.50;12.70;;;11.60;48.60;;;;;;5065262;28;20480;-68
2023/05/12 04:04:18;;;;;;;18.30;13.37;;;11.60;48.40;;;;;;5063496;28;20529;-68
2023/05/12 04:06:45;;;;;;;18.07;12.13;;;11.60;48.40;;;;;;5065791;28;21016;-69
2023/05/12 04:09:12;;;;;;;18.67;12.27;;;11.70;48.40;;;;;;5069802;28;20468;-68
2023/05/12 04:11:38;;;;;;;17.23;11.30;;;11.70;48.50;;;;;;5068640;28;20460;-69
2023/05/12 04:14:05;;;;;;;15.17;10.60;;;11.70;48.50;;;;;;5068345;28;20484;-69
2023/05/12 04:16:32;;;;;;;17.80;11.27;;;11.70;48.50;;;;;;5068424;28;20473;-70
2023/05/12 04:19:00;;;;;;;16.40;10.83;;;11.70;48.50;;;;;;5065939;28;20469;-69
2023/05/12 04:21:26;;;;;;;19.00;12.47;;;11.70;48.50;;;;;;5069906;28;20852;-69
2023/05/12 04:23:53;;;;;;;17.87;11.83;;;11.70;48.40;;;;;;5065736;28;20469;-70
2023/05/12 04:26:20;;;;;;;16.40;10.87;;;11.80;48.40;;;;;;5069536;28;21045;-69
2023/05/12 04:28:47;;;;;;;15.97;11.37;;;11.70;48.50;;;;;;5065642;28;20493;-68
2023/05/12 04:31:14;;;;;;;19.60;10.83;;;11.70;48.60;;;;;;5067724;28;21026;-67
2023/05/12 04:33:41;;;;;;;22.50;11.70;;;11.70;48.70;;;;;;5064217;28;20483;-67
2023/05/12 04:36:09;;;;;;;16.80;12.20;;;11.60;48.80;;;;;;5065688;28;21043;-70
2023/05/12 04:38:36;;;;;;;17.47;12.13;;;11.70;49.00;;;;;;5065214;28;20453;-71
2023/05/12 04:41:03;;;;;;;24.20;14.40;;;11.60;49.00;;;;;;5069871;28;20464;-72
2023/05/12 04:43:29;;;;;;;20.33;14.03;;;11.70;48.90;;;;;;5067103;28;20473;-70
2023/05/12 04:45:56;;;;;;;19.30;13.90;;;11.60;49.00;;;;;;5068301;28;20492;-70
2023/05/12 04:48:23;;;;;;;21.00;14.90;;;11.60;49.10;;;;;;5064311;28;20461;-70
2023/05/12 04:50:49;;;;;;;21.13;14.10;;;11.60;49.40;;;;;;5066228;28;20457;-70
2023/05/12 04:53:18;;;;;;;19.03;13.30;;;11.60;49.60;;;;;;5064652;28;20457;-70
2023/05/12 04:55:45;;;;;;;19.60;13.93;;;11.60;49.50;;;;;;5065849;28;20489;-70
2023/05/12 04:58:12;;;;;;;17.27;11.90;;;11.60;49.40;;;;;;5074971;28;20539;-70
2023/05/12 05:00:39;;;;;;;20.27;14.60;;;11.70;49.50;;;;;;5064311;28;20575;-70
2023/05/12 05:03:06;;;;;;;17.90;12.60;;;11.60;50.10;;;;;;5063135;28;20516;-70
2023/05/12 05:05:33;;;;;;;20.03;13.50;;;11.70;49.50;;;;;;5074220;28;20484;-69
2023/05/12 05:08:00;;;;;;;21.00;14.07;;;11.70;49.60;;;;;;5067300;28;20480;-69
2023/05/12 05:10:28;;;;;;;20.30;14.43;;;11.70;49.60;;;;;;5060238;28;20488;-69
2023/05/12 05:12:55;;;;;;;19.67;14.20;;;11.60;49.60;;;;;;5062292;28;20469;-70
2023/05/12 05:15:22;;;;;;;19.03;13.33;;;11.60;49.60;;;;;;5065557;28;20492;-70
2023/05/12 05:17:48;;;;;;;18.40;13.30;;;11.60;49.70;;;;;;5061479;28;20476;-70
2023/05/12 05:20:15;;;;;;;19.90;13.50;;;11.60;49.80;;;;;;5058315;28;21033;-70
2023/05/12 05:22:42;;;;;;;20.53;14.07;;;11.60;49.90;;;;;;5063160;28;20491;-70
2023/05/12 05:25:09;;;;;;;19.60;13.90;;;11.60;50.00;;;;;;5065882;28;20481;-69
2023/05/12 05:27:38;;;;;;;19.00;13.73;;;11.60;49.80;;;;;;5068779;28;20523;-68
2023/05/12 05:30:06;;;;;;;21.33;13.70;;;11.70;50.00;;;;;;5065156;28;20492;-69
2023/05/12 05:32:34;;;;;;;21.40;14.20;;;11.70;50.30;;;;;;5063555;28;20481;-69
2023/05/12 05:35:01;;;;;;;21.93;15.57;;;11.70;50.30;;;;;;5059205;28;20469;-70
2023/05/12 05:37:28;;;;;;;21.00;14.30;;;11.60;50.30;;;;;;5057882;28;20493;-70
2023/05/12 05:39:55;;;;;;;19.60;14.20;;;11.60;50.30;;;;;;5060606;28;20861;-69
2023/05/12 05:42:21;;;;;;;21.07;14.43;;;11.70;50.70;;;;;;5063953;28;20481;-68
2023/05/12 05:44:49;;;;;;;21.60;14.83;;;11.70;50.50;;;;;;5062206;28;20461;-70
2023/05/12 05:47:16;;;;;;;20.50;13.70;;;11.80;50.30;;;;;;5064370;28;20465;-71
2023/05/12 05:49:43;;;;;;;19.90;14.30;;;11.90;50.10;;;;;;5064819;28;20457;-70
2023/05/12 05:52:10;;;;;;;20.50;13.90;;;12.00;50.00;;;;;;5063137;28;20464;-71
2023/05/12 05:54:36;;;;;;;22.23;12.57;;;12.10;49.90;;;;;;5065057;28;20457;-70
2023/05/12 05:57:03;;;;;;;16.07;12.20;;;12.20;49.70;;;;;;5065560;28;20477;-71
2023/05/12 05:59:31;;;;;;;16.93;12.60;;;12.20;49.40;;;;;;5067987;28;20457;-71
2023/05/12 06:01:59;;;;;;;15.90;12.17;;;12.30;49.30;;;;;;5065206;28;20469;-71
2023/05/12 06:04:25;;;;;;;14.37;10.67;;;12.40;49.00;;;;;;5060615;28;20496;-71
2023/05/12 06:06:52;;;;;;;16.10;11.17;;;12.50;48.80;;;;;;5061985;28;20491;-71
2023/05/12 06:09:19;;;;;;;14.63;12.03;;;12.50;48.40;;;;;;5064988;28;20464;-71
2023/05/12 06:11:45;;;;;;;16.13;11.90;;;12.50;48.10;;;;;;5070882;28;20468;-71
2023/05/12 06:14:12;;;;;;;16.33;11.53;;;12.60;48.00;;;;;;5066743;28;20472;-70
2023/05/12 06:16:39;;;;;;;17.13;12.10;;;12.60;47.90;;;;;;5067256;28;20492;-69
2023/05/12 06:19:08;;;;;;;15.53;10.70;;;12.70;47.80;;;;;;5068324;28;20549;-68
2023/05/12 06:21:34;;;;;;;17.63;11.63;;;12.70;47.40;;;;;;5062470;28;20467;-68
2023/05/12 06:24:01;;;;;;;14.17;9.37;;;12.70;47.10;;;;;;5065653;28;20865;-69
2023/05/12 06:26:28;;;;;;;17.83;11.40;;;12.70;46.90;;;;;;5064314;28;20586;-68
2023/05/12 06:28:55;;;;;;;15.43;9.57;;;12.70;46.90;;;;;;5060156;28;20552;-67
2023/05/12 06:31:21;;;;;;;12.47;9.03;;;12.80;46.80;;;;;;5057846;28;20481;-69
2023/05/12 06:33:48;;;;;;;15.00;10.33;;;12.90;46.60;;;;;;5062891;28;20495;-70
2023/05/12 06:36:16;;;;;;;13.30;9.50;;;12.90;46.40;;;;;;5070378;28;20523;-68
2023/05/12 06:38:43;;;;;;;13.70;9.53;;;13.00;45.90;;;;;;5065323;28;20481;-69
2023/05/12 06:41:09;;;;;;;13.47;9.53;;;13.10;45.50;;;;;;5069364;28;20461;-68
2023/05/12 06:43:36;;;;;;;11.90;8.60;;;13.10;44.70;;;;;;5063800;28;20476;-67
2023/05/12 06:46:03;;;;;;;11.50;8.13;;;13.20;44.60;;;;;;5063519;28;20520;-68
2023/05/12 06:48:30;;;;;;;12.57;9.17;;;13.30;44.00;;;;;;5067483;28;20461;-69
2023/05/12 06:50:56;;;;;;;14.50;8.60;;;13.40;43.70;;;;;;5072184;28;20464;-69
2023/05/12 06:53:24;;;;;;;9.83;6.97;;;13.60;43.90;;;;;;5070495;28;20457;-69
2023/05/12 06:55:52;;;;;;;8.97;6.10;;;13.70;43.50;;;;;;5067364;28;20480;-69
2023/05/12 06:58:20;;;;;;;11.13;7.63;;;13.80;42.20;;;;;;5067952;28;20491;-66
2023/05/12 07:00:47;;;;;;;9.60;6.63;;;13.80;41.30;;;;;;5065099;28;20476;-67
2023/05/12 07:03:14;;;;;;;11.60;8.43;;;13.70;40.80;;;;;;5065603;28;20481;-67
2023/05/12 07:05:41;;;;;;;10.20;7.13;;;13.70;40.80;;;;;;5063795;28;20984;-70
2023/05/12 07:08:08;;;;;;;10.40;7.30;;;13.70;41.00;;;;;;5066362;28;20551;-69
2023/05/12 07:10:36;;;;;;;16.50;7.53;;;13.70;41.00;;;;;;5063916;28;20468;-69
2023/05/12 07:13:03;;;;;;;11.77;8.63;;;13.70;41.10;;;;;;5061264;28;20470;-68
2023/05/12 07:15:30;;;;;;;9.70;6.77;;;13.90;40.90;;;;;;5062598;28;20485;-67
2023/05/12 07:17:57;;;;;;;10.63;6.53;;;14.10;40.70;;;;;;5062031;28;20984;-68
2023/05/12 07:20:23;;;;;;;9.23;6.30;;;14.20;40.00;;;;;;5065994;28;20468;-68
2023/05/12 07:22:51;;;;;;;8.40;6.13;;;14.20;39.50;;;;;;5065350;28;20487;-68
2023/05/12 07:25:18;;;;;;;9.47;6.43;;;14.30;39.30;;;;;;5063509;28;20492;-67
2023/05/12 07:27:46;;;;;;;10.20;6.80;;;14.30;39.20;;;;;;5061896;28;20504;-67
2023/05/12 07:30:13;;;;;;;11.10;6.10;;;14.30;38.20;;;;;;5064720;28;20465;-68
2023/05/12 07:32:40;;;;;;;9.00;6.30;;;14.30;38.20;;;;;;5062165;28;20453;-68
2023/05/12 07:35:08;;;;;;;10.60;6.37;;;14.30;37.90;;;;;;5063819;28;21144;-68
2023/05/12 07:37:34;;;;;;;10.03;6.23;;;14.30;38.00;;;;;;5061833;28;20465;-68
2023/05/12 07:40:01;;;;;;;7.97;5.40;;;14.30;37.90;;;;;;5063161;28;20460;-67
2023/05/12 07:42:28;;;;;;;8.30;5.40;;;14.50;37.40;;;;;;5060683;28;20500;-67
2023/05/12 07:44:56;;;;;;;8.20;5.17;;;14.80;36.80;;;;;;5066417;28;20465;-69
2023/05/12 07:47:22;;;;;;;6.90;3.87;;;15.40;35.40;;;;;;5067081;28;20465;-69
2023/05/12 07:49:49;;;;;;;7.40;4.47;;;16.50;33.40;;;;;;5072384;28;20476;-69
2023/05/12 07:52:16;;;;;;;6.10;3.33;;;17.00;31.00;;;;;;5068195;28;20469;-70
2023/05/12 07:54:43;;;;;;;7.00;3.90;;;17.00;30.20;;;;;;5066096;28;20469;-68
2023/05/12 07:57:09;;;;;;;6.93;3.60;;;16.80;27.40;;;;;;5070003;28;20480;-68
2023/05/12 07:59:36;;;;;;;8.33;4.87;;;16.40;27.90;;;;;;5060035;28;20465;-68
2023/05/12 08:02:05;;;;;;;6.10;3.53;;;16.20;27.40;;;;;;5064019;28;20473;-68
2023/05/12 08:04:31;;;;;;;6.50;3.70;;;15.90;27.90;;;;;;5066685;28;20480;-70
2023/05/12 08:06:58;;;;;;;6.70;4.07;;;15.60;28.50;;;;;;5066145;28;20485;-69
2023/05/12 08:09:25;;;;;;;6.77;4.10;;;15.50;29.50;;;;;;5072027;28;21341;-67
2023/05/12 08:11:52;;;;;;;6.73;3.40;;;15.30;29.90;;;;;;5064919;28;20480;-68
2023/05/12 08:14:18;;;;;;;5.73;3.30;;;15.10;30.70;;;;;;5068466;28;20473;-67
2023/05/12 08:16:45;;;;;;;6.57;3.60;;;15.00;31.60;;;;;;5071144;28;20489;-68
2023/05/12 08:19:13;;;;;;;5.50;2.70;;;14.90;32.00;;;;;;5065328;28;20540;-70
2023/05/12 08:21:40;;;;;;;6.50;3.30;;;14.90;32.20;;;;;;5070522;28;20488;-68
2023/05/12 08:24:07;;;;;;;5.07;2.07;;;14.80;32.30;;;;;;5072623;28;20572;-72
2023/05/12 08:26:34;;;;;;;6.73;2.80;;;14.90;32.70;;;;;;5065847;28;20563;-68
2023/05/12 08:29:01;;;;;;;6.70;2.67;;;15.00;32.80;;;;;;5068872;28;20473;-69
2023/05/12 08:31:28;;;;;;;6.10;3.33;;;15.00;32.90;;;;;;5069599;28;20497;-72
2023/05/12 08:33:54;;;;;;;5.90;2.90;;;15.00;31.80;;;;;;5066697;28;20487;-70
2023/05/12 08:36:22;;;;;;;5.73;3.40;;;14.90;32.20;;;;;;5065895;28;20481;-70
2023/05/12 08:38:49;;;;;;;7.83;3.63;;;14.70;31.60;;;;;;5069602;28;20461;-70
2023/05/12 08:41:20;;;;;;;6.00;3.43;;;14.60;31.90;;;;;;5065684;28;20456;-70
2023/05/12 08:43:50;;;;;;;6.70;3.23;;;14.60;32.70;;;;;;5069048;28;20483;-69
2023/05/12 08:46:17;;;;;;;7.43;4.87;;;14.60;33.30;;;;;;5067248;28;20496;-70
2023/05/12 08:48:46;;;;;;;6.90;3.90;;;14.60;33.40;;;;;;5067793;28;20465;-69
2023/05/12 08:51:14;;;;;;;7.23;4.37;;;14.60;33.10;;;;;;5065808;28;20462;-70
2023/05/12 08:53:42;;;;;;;8.13;4.93;;;14.50;33.70;;;;;;5063892;28;20468;-73
2023/05/12 08:56:10;;;;;;;8.20;5.10;;;14.50;33.90;;;;;;5069319;28;20515;-70
2023/05/12 08:58:37;;;;;;;8.40;5.60;;;14.50;34.20;;;;;;5067893;28;21540;-70
2023/05/12 09:01:06;;;;;;;7.90;5.10;;;14.60;34.70;;;;;;5067941;28;20835;-69
2023/05/12 09:03:33;;;;;;;9.90;6.27;;;14.60;34.50;;;;;;5064787;28;20508;-70
2023/05/12 09:06:01;;;;;;;8.37;5.43;;;14.70;34.30;;;;;;5060104;28;20485;-70
2023/05/12 09:08:29;;;;;;;8.23;5.37;;;14.80;34.10;;;;;;5064213;28;20828;-70
2023/05/12 09:10:58;;;;;;;8.67;4.90;;;15.00;34.10;;;;;;5064646;28;20469;-70
2023/05/12 09:13:32;;;;;;;8.60;4.90;;;15.10;33.70;;;;;;5057894;28;20487;-70
2023/05/12 09:16:01;;;;;;;9.33;5.80;;;15.20;32.90;;;;;;5060482;28;20477;-71
2023/05/12 09:18:42;;;;;;;10.40;6.30;;;15.30;32.30;;;;;;5062637;28;20465;-70
2023/05/12 09:21:09;;;;;;;14.10;5.80;;;15.20;31.50;;;;;;5065212;28;20461;-71
2023/05/12 09:23:36;;;;;;;8.47;5.07;;;15.20;31.90;;;;;;5063421;28;20854;-70
2023/05/12 09:26:04;;;;;;;10.00;5.47;;;15.10;31.70;;;;;;5066626;28;21378;-70
2023/05/12 09:28:36;;;;;;;7.60;4.90;;;15.00;32.10;;;;;;5067859;28;20524;-71
2023/05/12 09:31:13;;;;;;;7.83;4.80;;;14.90;31.80;;;;;;5066768;28;20885;-71
2023/05/12 09:33:40;;;;;;;7.93;4.73;;;14.90;31.80;;;;;;5060382;28;22650;-71
2023/05/12 09:36:07;;;;;;;10.20;4.83;;;14.90;32.10;;;;;;5064734;28;20488;-67
2023/05/12 09:38:33;;;;;;;7.70;5.07;;;15.00;32.30;;;;;;5065982;28;20518;-67
2023/05/12 09:41:00;;;;;;;8.00;5.33;;;15.10;32.60;;;;;;5066845;28;20457;-68
2023/05/12 09:43:29;;;;;;;8.13;4.97;;;15.30;32.50;;;;;;5066129;28;20484;-67
2023/05/12 09:45:55;;;;;;;16.10;5.27;;;15.40;32.10;;;;;;5063291;28;20511;-67
2023/05/12 09:48:22;;;;;;;7.00;4.23;;;15.60;31.40;;;;;;5070773;28;20465;-67
2023/05/12 09:50:51;;;;;;;6.60;4.07;;;15.80;31.00;;;;;;5067519;28;20957;-66
2023/05/12 09:53:19;;;;;;;7.00;4.10;;;16.10;29.20;;;;;;5067415;28;20463;-67
2023/05/12 09:55:46;;;;;;;7.53;4.10;;;16.60;29.10;;;;;;5066719;28;20473;-67
2023/05/12 09:58:15;;;;;;;7.10;4.10;;;17.10;28.10;;;;;;5065247;28;20464;-67
2023/05/12 10:00:43;;;;;;;6.60;3.90;;;17.60;24.10;;;;;;5062734;28;20481;-67
2023/05/12 10:03:20;;;;;;;6.70;4.00;;;17.90;23.00;;;;;;5063452;28;20460;-67
2023/05/12 10:05:50;;;;;;;6.43;4.10;;;18.40;24.70;;;;;;5067470;28;20481;-67
2023/05/12 10:08:21;;;;;;;6.90;4.00;;;18.90;24.00;;;;;;5063162;28;20457;-67
2023/05/12 10:10:51;;;;;;;6.97;4.10;;;19.10;22.30;;;;;;5061146;28;21320;-67
2023/05/12 10:13:18;;;;;;;6.90;3.83;;;19.20;21.60;;;;;;5064471;28;20966;-67
2023/05/12 10:15:47;;;;;;;5.93;3.53;;;19.30;20.40;;;;;;5063504;28;20477;-67
2023/05/12 10:18:15;;;;;;;6.43;3.70;;;19.30;19.80;;;;;;5064611;28;20489;-67
2023/05/12 10:20:44;;;;;;;6.33;3.60;;;19.20;19.60;;;;;;5060445;28;20859;-70
2023/05/12 10:23:13;;;;;;;6.20;3.23;;;19.20;20.00;;;;;;5057419;28;20583;-69
2023/05/12 10:25:42;;;;;;;5.37;2.73;;;19.30;19.80;;;;;;5059901;28;20516;-68
2023/05/12 10:28:09;;;;;;;6.27;2.63;;;19.30;18.40;;;;;;5058597;28;20469;-68
2023/05/12 10:30:37;;;;;;;4.93;2.37;;;19.20;19.00;;;;;;5064320;28;20468;-67
2023/05/12 10:33:07;;;;;;;7.00;2.73;;;19.30;18.90;;;;;;5066318;28;20500;-67
2023/05/12 10:35:35;;;;;;;8.40;2.60;;;19.30;19.20;;;;;;5061804;28;20481;-67
2023/05/12 10:38:05;;;;;;;5.63;2.40;;;19.20;18.90;;;;;;5060780;28;20478;-67
2023/05/12 10:40:32;;;;;;;5.07;2.23;;;19.10;18.40;;;;;;5058280;28;20457;-68
2023/05/12 10:43:00;;;;;;;5.23;2.47;;;19.00;18.80;;;;;;5059773;28;20465;-68
2023/05/12 10:45:28;;;;;;;5.20;2.47;;;18.90;18.90;;;;;;5068389;28;20520;-69
2023/05/12 10:48:07;;;;;;;4.73;2.07;;;18.80;19.10;;;;;;5065539;28;20460;-67
2023/05/12 10:50:34;;;;;;;4.87;2.00;;;18.50;18.10;;;;;;5062025;28;20465;-67
2023/05/12 10:53:00;;;;;;;4.50;2.00;;;18.20;17.70;;;;;;5069265;28;20468;-67
2023/05/12 10:55:33;;;;;;;4.77;1.80;;;18.00;18.90;;;;;;5062067;28;20496;-67
2023/05/12 10:58:09;;;;;;;4.13;1.60;;;17.90;19.70;;;;;;5066963;28;20986;-68
2023/05/12 11:00:44;;;;;;;5.90;2.07;;;17.70;19.80;;;;;;5074497;28;20893;-68
2023/05/12 11:03:16;;;;;;;4.47;1.70;;;17.60;20.20;;;;;;5067644;28;20455;-67
2023/05/12 11:05:44;;;;;;;4.97;1.90;;;17.50;20.50;;;;;;5072402;28;20480;-68
2023/05/12 11:08:11;;;;;;;4.87;1.80;;;17.50;20.80;;;;;;5063458;28;20967;-69
2023/05/12 11:10:41;;;;;;;5.10;1.63;;;17.40;19.90;;;;;;5065587;28;20461;-70
2023/05/12 11:13:08;;;;;;;6.33;2.10;;;17.20;20.40;;;;;;5062016;28;20973;-66
2023/05/12 11:15:34;;;;;;;4.50;1.80;;;17.20;21.10;;;;;;5058425;28;20497;-68
2023/05/12 11:18:03;;;;;;;4.30;1.67;;;17.20;20.70;;;;;;5059833;28;20918;-66
2023/05/12 11:20:31;;;;;;;6.97;1.60;;;17.00;20.30;;;;;;5060660;28;20514;-69
2023/05/12 11:22:58;;;;;;;4.40;1.40;;;16.90;21.40;;;;;;5069370;28;20564;-67
2023/05/12 11:25:26;;;;;;;6.63;1.50;;;16.80;22.30;;;;;;5060984;28;20861;-66
2023/05/12 11:27:53;;;;;;;4.97;1.90;;;16.90;22.80;;;;;;5067668;28;20464;-67
2023/05/12 11:30:20;;;;;;;4.57;1.90;;;16.70;22.00;;;;;;5067872;28;20465;-68
2023/05/12 11:32:47;;;;;;;4.77;2.03;;;16.70;22.50;;;;;;5063724;28;20468;-65
2023/05/12 11:35:16;;;;;;;4.83;2.00;;;16.80;22.90;;;;;;5060309;28;20480;-66
2023/05/12 11:37:45;;;;;;;7.30;2.70;;;16.80;22.70;;;;;;5064865;28;20468;-66
2023/05/12 11:40:16;;;;;;;5.07;2.80;;;16.80;21.20;;;;;;5063955;28;20518;-66
2023/05/12 11:42:47;;;;;;;5.80;2.60;;;16.80;21.40;;;;;;5064642;28;20471;-66
2023/05/12 11:45:24;;;;;;;5.57;2.37;;;16.70;21.10;;;;;;5058070;28;20583;-66
2023/05/12 11:47:51;;;;;;;5.50;1.80;;;16.70;22.30;;;;;;5066131;28;20953;-66
2023/05/12 11:50:23;;;;;;;4.70;2.27;;;16.70;20.40;;;;;;5064243;28;20469;-66
2023/05/12 11:52:52;;;;;;;4.90;2.37;;;16.80;20.60;;;;;;5067625;28;20465;-66
2023/05/12 11:55:24;;;;;;;5.00;2.57;;;16.80;21.10;;;;;;5058814;28;21008;-66
2023/05/12 11:57:59;;;;;;;6.23;2.87;;;17.00;21.90;;;;;;5062808;28;20497;-66
2023/05/12 12:00:31;;;;;;;5.80;3.23;;;17.10;22.00;;;;;;5063838;28;20468;-66
2023/05/12 12:03:11;;;;;;;6.77;2.60;;;17.30;21.50;;;;;;5064710;28;20457;-66
2023/05/12 12:05:39;;;;;;;5.40;2.77;;;17.20;20.90;;;;;;5063881;28;20570;-67
2023/05/12 12:08:08;;;;;;;5.07;2.60;;;17.20;20.60;;;;;;5065060;28;20940;-66
2023/05/12 12:10:35;;;;;;;6.53;3.20;;;17.00;20.70;;;;;;5061513;28;20551;-66
2023/05/12 12:13:02;;;;;;;7.30;2.93;;;17.00;20.80;;;;;;5066260;28;20492;-66
2023/05/12 12:15:29;;;;;;;7.00;3.07;;;17.00;21.70;;;;;;5063910;28;20483;-66
2023/05/12 12:17:57;;;;;;;4.80;2.30;;;17.10;21.60;;;;;;5066600;28;20461;-66
2023/05/12 12:20:24;;;;;;;5.70;2.80;;;17.10;21.40;;;;;;5065744;28;20461;-66
2023/05/12 12:22:51;;;;;;;5.90;2.60;;;17.20;21.40;;;;;;5065498;28;20483;-66
2023/05/12 12:25:20;;;;;;;5.17;2.77;;;17.30;21.30;;;;;;5063303;28;20481;-66
2023/05/12 12:27:47;;;;;;;4.43;2.30;;;17.30;20.10;;;;;;5064025;28;20457;-66
2023/05/12 12:30:15;;;;;;;5.60;2.70;;;17.20;19.90;;;;;;5062621;28;21017;-66
2023/05/12 12:32:42;;;;;;;5.07;2.97;;;17.10;20.10;;;;;;5068313;28;20959;-66
2023/05/12 12:35:10;;;;;;;4.93;2.70;;;17.00;20.70;;;;;;5066546;28;21027;-66
2023/05/12 12:37:37;;;;;;;6.33;2.90;;;16.90;21.40;;;;;;5069447;28;20502;-66
2023/05/12 12:40:07;;;;;;;4.50;2.30;;;16.80;22.00;;;;;;5067196;28;20481;-66